Time;durP1;ratioP1;P1;durP2;ratioP2;P2;SDS_P1;SDS_P2;PMS_P1;PMS_P2;Temp;Humidity;BMP_temperature;BMP_pressure;BME280_temperature;BME280_humidity;BME280_pressure;Samples;Min_cycle;Max_cycle;Signal;HPM_P1;HPM_P2
2022/05/12 00:01:24;;;;;;;18.43;6.83;;;;;;;12.87;45.02;100655.95;124807;1099;102784;-76
2022/05/12 00:03:55;;;;;;;17.83;6.90;;;;;;;12.86;44.99;100658.53;124720;1099;104251;-75
2022/05/12 00:06:28;;;;;;;17.33;6.87;;;;;;;12.82;45.39;100656.65;124784;1099;104153;-75
2022/05/12 00:09:06;;;;;;;17.57;6.83;;;;;;;12.75;45.27;100658.22;124773;1099;102312;-75
2022/05/12 00:11:37;;;;;;;16.33;6.97;;;;;;;12.71;45.70;100656.33;124742;1099;102249;-75
2022/05/12 00:14:08;;;;;;;17.47;7.20;;;;;;;12.66;45.73;100657.95;124764;1099;104496;-76
2022/05/12 00:16:40;;;;;;;22.03;7.67;;;;;;;12.59;45.87;100654.25;124741;1099;101873;-76
2022/05/12 00:19:11;;;;;;;18.83;7.40;;;;;;;12.53;46.33;100660.20;124734;1099;104255;-75
2022/05/12 00:21:43;;;;;;;18.57;7.33;;;;;;;12.48;46.24;100667.08;124824;1099;102349;-75
2022/05/12 00:24:16;;;;;;;18.80;8.33;;;;;;;12.40;46.40;100674.74;125753;1099;104360;-76
2022/05/12 00:26:49;;;;;;;21.80;7.47;;;;;;;12.38;46.61;100672.89;124883;1099;104172;-76
2022/05/12 00:29:30;;;;;;;19.33;7.90;;;;;;;12.32;46.86;100656.91;124786;1098;104288;-76
2022/05/12 00:32:01;;;;;;;17.47;7.17;;;;;;;12.37;46.80;100673.73;124728;1099;104527;-75
2022/05/12 00:34:33;;;;;;;17.63;6.83;;;;;;;12.30;46.93;100671.77;124793;1099;104140;-76
2022/05/12 00:37:05;;;;;;;20.07;7.43;;;;;;;12.21;47.57;100667.10;124835;1099;104185;-76
2022/05/12 00:39:37;;;;;;;17.23;7.20;;;;;;;12.13;47.59;100673.86;124770;1099;102800;-76
2022/05/12 00:42:10;;;;;;;17.67;7.10;;;;;;;12.04;47.77;100669.19;124754;1099;104226;-75
2022/05/12 00:44:42;;;;;;;18.33;7.37;;;;;;;11.97;47.88;100662.84;125764;1096;104229;-76
2022/05/12 00:47:15;;;;;;;21.03;7.57;;;;;;;11.93;47.83;100665.33;124797;1099;104229;-75
2022/05/12 00:49:48;;;;;;;18.40;6.77;;;;;;;11.91;48.17;100666.98;124754;1099;104229;-76
2022/05/12 00:52:26;;;;;;;22.20;6.83;;;;;;;11.88;48.04;100668.66;124863;1099;102269;-76
2022/05/12 00:55:09;;;;;;;17.60;6.97;;;;;;;11.79;48.47;100652.57;124796;1099;103572;-76
2022/05/12 00:57:45;;;;;;;20.87;7.70;;;;;;;11.85;48.93;100665.04;124775;1099;104357;-76
2022/05/12 01:00:19;;;;;;;20.77;7.07;;;;;;;11.83;48.87;100664.98;124796;1099;104225;-75
2022/05/12 01:02:56;;;;;;;17.30;6.67;;;;;;;11.83;48.49;100669.36;124752;1099;104160;-75
2022/05/12 01:05:29;;;;;;;20.13;6.70;;;;;;;11.83;49.10;100664.10;124743;1099;104269;-75
2022/05/12 01:08:05;;;;;;;20.37;7.07;;;;;;;11.72;49.53;100654.94;124803;1099;104153;-76
2022/05/12 01:10:39;;;;;;;16.83;6.63;;;;;;;11.69;49.44;100668.90;126045;1097;104376;-76
2022/05/12 01:13:21;;;;;;;19.77;6.87;;;;;;;11.61;49.33;100666.01;124879;1098;104233;-75
2022/05/12 01:15:59;;;;;;;16.23;6.23;;;;;;;11.56;49.58;100664.05;124807;1099;111866;-75
2022/05/12 01:18:36;;;;;;;18.13;6.30;;;;;;;11.52;49.52;100670.95;125810;1099;104223;-75
2022/05/12 01:21:11;;;;;;;18.23;6.87;;;;;;;11.47;49.98;100668.16;126933;1097;101916;-75
2022/05/12 01:23:48;;;;;;;15.70;6.57;;;;;;;11.45;49.37;100666.30;124791;1099;102745;-76
2022/05/12 01:26:24;;;;;;;17.67;6.90;;;;;;;11.38;49.54;100654.70;124932;1096;102903;-76
2022/05/12 01:28:58;;;;;;;14.83;6.58;;;;;;;11.50;49.96;100664.75;124876;1099;104322;-75
2022/05/12 01:31:29;;;;;;;22.03;6.97;;;;;;;11.60;49.95;100661.58;124867;1099;104223;-75
2022/05/12 01:34:02;;;;;;;17.83;6.67;;;;;;;11.70;50.08;100665.41;124955;1099;102251;-75
2022/05/12 01:36:34;;;;;;;18.37;6.60;;;;;;;11.75;50.10;100653.33;124739;1099;102349;-75
2022/05/12 01:39:08;;;;;;;18.00;7.17;;;;;;;11.83;50.03;100658.84;125846;1099;104137;-75
2022/05/12 01:41:40;;;;;;;17.13;6.40;;;;;;;11.85;50.31;100662.41;126136;1098;102030;-75
2022/05/12 01:44:12;;;;;;;20.07;6.50;;;;;;;11.84;50.04;100661.53;126191;1098;101768;-75
2022/05/12 01:46:46;;;;;;;18.30;6.37;;;;;;;11.83;50.17;100658.84;124785;1098;103462;-75
2022/05/12 01:49:24;;;;;;;15.93;6.12;;;;;;;11.77;50.37;100656.89;124993;1099;104216;-76
2022/05/12 01:52:01;;;;;;;18.07;6.10;;;;;;;11.69;50.07;100653.13;125012;1099;104191;-75
2022/05/12 01:54:33;;;;;;;17.47;6.67;;;;;;;11.61;50.47;100657.20;125858;1098;104164;-76
2022/05/12 01:57:05;;;;;;;17.17;6.20;;;;;;;11.55;50.52;100655.28;124800;1099;104181;-76
2022/05/12 01:59:38;;;;;;;15.63;6.73;;;;;;;11.53;50.24;100656.06;124805;1099;102351;-76
2022/05/12 02:02:13;;;;;;;17.30;6.50;;;;;;;11.51;50.88;100661.27;125788;1097;104232;-75
2022/05/12 02:04:42;;;;;;;;;;;;;;;11.47;51.10;100662.02;125007;1099;104211;-75
2022/05/12 02:07:13;;;;;;;16.33;6.30;;;;;;;11.43;50.38;100661.00;124803;1097;101796;-75
2022/05/12 02:09:45;;;;;;;17.20;6.33;;;;;;;11.41;51.00;100661.80;124805;1099;104256;-76
2022/05/12 02:12:18;;;;;;;19.07;6.60;;;;;;;11.37;50.62;100658.16;124860;1099;104160;-76
2022/05/12 02:15:02;;;;;;;15.57;6.03;;;;;;;11.31;51.04;100657.94;124773;1099;104275;-76
2022/05/12 02:17:33;;;;;;;17.85;6.87;;;;;;;11.23;50.65;100662.04;124878;1099;104224;-76
2022/05/12 02:20:13;;;;;;;18.77;6.87;;;;;;;11.18;51.45;100667.13;124915;1099;103572;-75
2022/05/12 02:22:48;;;;;;;17.10;6.77;;;;;;;11.22;51.33;100666.41;124801;1099;104252;-75
2022/05/12 02:25:20;;;;;;;17.20;6.80;;;;;;;11.24;51.22;100667.34;124710;1099;103492;-76
2022/05/12 02:27:55;;;;;;;19.47;6.73;;;;;;;11.25;51.76;100673.48;124732;1099;109239;-75
2022/05/12 02:30:29;;;;;;;17.80;7.07;;;;;;;11.26;51.59;100665.66;124745;1099;104213;-75
2022/05/12 02:33:01;;;;;;;18.37;7.60;;;;;;;11.24;51.90;100661.20;124799;1098;104261;-76
2022/05/12 02:35:35;;;;;;;20.27;7.13;;;;;;;11.17;52.27;100669.70;124772;1099;104207;-76
2022/05/12 02:38:07;;;;;;;15.90;6.87;;;;;;;11.07;52.88;100673.73;124699;1098;120056;-76
2022/05/12 02:40:39;;;;;;;20.43;7.43;;;;;;;10.93;52.70;100668.86;124765;1097;102784;-75
2022/05/12 02:46:01;;;;;;;20.60;7.73;;;;;;;10.76;53.03;100677.84;124662;1099;102784;-76
2022/05/12 02:48:36;;;;;;;18.20;7.10;;;;;;;10.69;53.27;100676.73;124819;1096;102149;-75
2022/05/12 02:51:09;;;;;;;18.67;7.80;;;;;;;10.69;52.83;100674.10;124762;1096;104352;-75
2022/05/12 02:53:41;;;;;;;19.60;7.40;;;;;;;10.70;53.26;100672.36;124726;1096;104239;-75
2022/05/12 02:56:13;;;;;;;21.33;7.37;;;;;;;10.70;53.57;100682.86;124818;1099;104211;-75
2022/05/12 02:58:45;;;;;;;19.00;7.33;;;;;;;10.71;53.13;100676.78;124748;1099;104261;-75
2022/05/12 03:01:17;;;;;;;16.90;6.92;;;;;;;10.70;53.38;100670.62;124636;1099;103636;-75
2022/05/12 03:03:50;;;;;;;18.57;7.33;;;;;;;10.75;53.33;100687.45;124769;1099;104587;-76
2022/05/12 03:06:21;;;;;;;22.87;8.17;;;;;;;10.73;53.58;100686.48;124798;1099;104166;-76
2022/05/12 03:08:53;;;;;;;20.30;7.37;;;;;;;10.74;53.43;100692.64;124703;1098;104237;-75
2022/05/12 03:11:26;;;;;;;20.83;7.10;;;;;;;10.76;54.09;100691.84;124763;1096;104191;-75
2022/05/12 03:13:59;;;;;;;21.17;6.83;;;;;;;10.80;53.27;100690.25;124767;1099;104240;-76
2022/05/12 03:16:31;;;;;;;16.23;6.47;;;;;;;10.78;53.91;100687.58;124689;1099;103077;-77
2022/05/12 03:19:03;;;;;;;19.87;6.80;;;;;;;10.81;54.34;100686.77;124687;1099;107757;-75
2022/05/12 03:21:34;;;;;;;20.07;6.97;;;;;;;10.86;53.78;100692.20;124727;1099;104287;-75
2022/05/12 03:24:07;;;;;;;18.77;7.00;;;;;;;10.84;54.07;100689.52;124650;1099;102234;-76
2022/05/12 03:26:38;;;;;;;19.20;7.53;;;;;;;10.85;54.09;100700.93;124721;1099;102471;-75
2022/05/12 03:29:11;;;;;;;19.07;7.93;;;;;;;10.85;54.64;100693.94;124803;1097;104191;-75
2022/05/12 03:31:43;;;;;;;17.33;6.90;;;;;;;10.86;54.30;100694.83;124702;1099;102954;-75
2022/05/12 03:34:14;;;;;;;22.73;7.57;;;;;;;10.88;54.85;100695.80;124809;1099;104242;-76
2022/05/12 03:36:46;;;;;;;17.57;7.43;;;;;;;10.87;54.29;100699.25;124746;1099;102752;-75
2022/05/12 03:39:18;;;;;;;20.50;7.80;;;;;;;10.90;54.64;100704.61;124762;1099;104708;-76
2022/05/12 03:41:49;;;;;;;22.57;8.07;;;;;;;10.90;54.74;100701.98;125139;1099;101865;-77
2022/05/12 03:47:10;;;;;;;19.50;8.70;;;;;;;10.99;55.14;100702.34;124845;1099;104278;-77
2022/05/12 03:49:43;;;;;;;18.93;8.40;;;;;;;11.07;54.74;100698.25;124854;1099;110419;-78
2022/05/12 03:52:15;;;;;;;21.73;8.40;;;;;;;11.17;55.22;100695.96;124806;1099;102272;-76
2022/05/12 03:54:47;;;;;;;22.30;8.33;;;;;;;11.22;54.82;100695.30;124719;1099;104147;-77
2022/05/12 03:57:20;;;;;;;22.33;8.63;;;;;;;11.26;54.64;100691.05;124846;1098;101902;-77
2022/05/12 04:00:11;;;;;;;22.17;8.30;;;;;;;11.31;54.96;100697.34;124846;1098;104163;-76
2022/05/12 04:02:43;;;;;;;24.33;8.47;;;;;;;11.37;55.28;100699.31;124822;1097;102357;-77
2022/05/12 04:05:17;;;;;;;20.57;8.00;;;;;;;11.42;55.25;100702.98;124807;1099;104253;-77
2022/05/12 04:07:49;;;;;;;20.10;7.67;;;;;;;11.43;55.04;100705.66;124825;1099;104379;-77
2022/05/12 04:10:22;;;;;;;15.77;6.57;;;;;;;11.47;55.16;100706.69;124778;1099;107003;-78
2022/05/12 04:12:57;;;;;;;17.33;7.20;;;;;;;11.49;54.91;100711.14;124777;1099;104229;-77
2022/05/12 04:15:28;;;;;;;19.87;7.73;;;;;;;11.53;55.25;100706.91;124750;1099;104275;-77
2022/05/12 04:18:02;;;;;;;21.50;7.65;;;;;;;11.58;55.13;100705.33;124839;1099;104195;-77
2022/05/12 04:20:36;;;;;;;20.40;7.90;;;;;;;11.64;54.92;100709.88;124789;1099;117783;-77
2022/05/12 04:23:08;;;;;;;19.00;7.60;;;;;;;11.73;54.92;100709.31;124808;1097;104498;-77
2022/05/12 04:25:39;;;;;;;20.53;7.97;;;;;;;11.75;55.17;100700.66;124875;1099;104227;-78
2022/05/12 04:28:11;;;;;;;24.67;8.40;;;;;;;11.93;55.19;100712.66;124814;1098;104264;-78
2022/05/12 04:30:45;;;;;;;18.93;7.57;;;;;;;12.04;54.92;100719.16;124866;1097;102117;-78
2022/05/12 04:36:07;;;;;;;19.13;8.13;;;;;;;12.24;54.89;100722.45;124792;1099;103572;-78
2022/05/12 04:38:39;;;;;;;24.30;8.33;;;;;;;12.31;54.95;100718.27;124794;1099;104257;-78
2022/05/12 04:41:11;;;;;;;22.57;8.97;;;;;;;12.40;55.15;100723.83;124763;1099;102221;-77
2022/05/12 04:43:43;;;;;;;21.30;8.00;;;;;;;12.49;54.86;100728.50;124787;1099;103276;-77
2022/05/12 04:46:15;;;;;;;26.43;10.30;;;;;;;12.57;54.75;100730.54;124722;1098;102570;-77
2022/05/12 04:48:47;;;;;;;22.25;8.60;;;;;;;12.67;54.83;100726.44;124620;1099;102800;-78
2022/05/12 04:51:19;;;;;;;24.57;9.27;;;;;;;12.70;55.01;100707.19;124704;1099;104386;-77
2022/05/12 04:53:51;;;;;;;22.83;9.10;;;;;;;12.85;54.66;100720.83;124396;1099;102893;-77
2022/05/12 04:56:23;;;;;;;27.07;9.77;;;;;;;12.95;54.82;100720.27;124673;1099;102798;-77
2022/05/12 04:58:54;;;;;;;24.43;8.97;;;;;;;13.05;54.47;100723.17;124705;1099;104394;-77
2022/05/12 05:01:26;;;;;;;22.27;8.93;;;;;;;13.16;54.27;100719.09;124671;1099;108132;-77
2022/05/12 05:04:00;;;;;;;23.20;9.97;;;;;;;13.26;54.72;100717.60;124771;1099;103377;-77
2022/05/12 05:06:32;;;;;;;25.37;9.55;;;;;;;13.37;54.55;100717.94;124686;1099;104205;-77
2022/05/12 05:09:07;;;;;;;24.90;9.10;;;;;;;13.48;54.50;100719.15;124649;1099;104227;-77
2022/05/12 05:11:41;;;;;;;25.07;9.07;;;;;;;13.58;53.91;100717.64;124760;1099;118256;-77
2022/05/12 05:14:30;;;;;;;28.92;8.98;;;;;;;13.71;54.03;100714.47;124791;1099;104342;-77
2022/05/12 05:17:02;;;;;;;25.57;9.27;;;;;;;13.85;53.85;100725.37;124315;1099;102496;-76
2022/05/12 05:19:35;;;;;;;25.15;9.65;;;;;;;13.98;54.25;100716.94;124367;1099;102330;-77
2022/05/12 05:22:06;;;;;;;27.70;10.13;;;;;;;14.13;53.29;100718.16;124842;1099;103096;-76
2022/05/12 05:24:38;;;;;;;25.40;9.30;;;;;;;14.27;53.54;100711.47;124926;1099;102626;-76
2022/05/12 05:27:12;;;;;;;25.67;9.33;;;;;;;14.41;53.41;100713.55;125060;1099;102244;-75
2022/05/12 05:29:44;;;;;;;20.50;8.33;;;;;;;14.53;53.45;100708.56;125119;1099;102226;-74
2022/05/12 05:32:16;;;;;;;24.33;9.47;;;;;;;14.66;53.28;100718.59;125072;1099;102645;-75
2022/05/12 05:34:47;;;;;;;30.30;10.20;;;;;;;14.80;52.88;100710.06;124935;1098;103697;-76
2022/05/12 05:37:25;;;;;;;33.87;10.30;;;;;;;14.92;53.15;100712.97;124960;1099;104256;-76
2022/05/12 05:40:03;;;;;;;31.83;10.67;;;;;;;15.05;53.35;100707.09;125048;1099;105617;-77
2022/05/12 05:42:38;;;;;;;32.63;10.63;;;;;;;15.19;53.01;100704.73;125063;1099;104229;-76
2022/05/12 05:45:17;;;;;;;29.60;10.27;;;;;;;15.32;53.04;100704.95;125272;1099;104192;-77
2022/05/12 05:48:01;;;;;;;27.97;11.17;;;;;;;15.44;53.01;100699.91;125618;1099;104322;-77
2022/05/12 05:53:23;;;;;;;30.90;10.08;;;;;;;15.57;52.71;100707.22;125885;1099;104676;-78
2022/05/12 05:53:42;;;;;;;23.97;10.27;;;;;;;15.71;53.23;100707.47;125319;1099;102376;-78
2022/05/12 05:56:17;;;;;;;31.33;11.43;;;;;;;15.83;52.34;100698.88;126102;1099;102858;-78
2022/05/12 05:58:55;;;;;;;28.13;9.90;;;;;;;15.96;52.47;100708.81;125581;1099;104270;-78
2022/05/12 06:04:30;;;;;;;29.53;9.87;;;;;;;16.23;52.30;100703.95;125968;1099;104163;-77
2022/05/12 06:07:08;;;;;;;24.57;10.17;;;;;;;16.38;52.86;100708.58;125229;1099;104293;-78
2022/05/12 06:09:58;;;;;;;27.63;9.70;;;;;;;16.51;52.43;100694.67;125479;1099;104166;-78
2022/05/12 06:12:36;;;;;;;27.50;9.80;;;;;;;16.67;52.59;100701.06;125826;1099;104281;-78
2022/05/12 06:15:21;;;;;;;22.93;10.43;;;;;;;16.80;52.32;100695.08;125053;1099;104194;-78
2022/05/12 06:18:46;;;;;;;24.03;9.03;;;;;;;16.97;52.63;100691.77;125994;1099;104315;-78
2022/05/12 06:21:23;;;;;;;19.73;7.67;;;;;;;17.19;51.70;100695.59;125675;1099;104268;-79
2022/05/12 06:24:07;;;;;;;17.93;5.20;;;;;;;17.36;51.45;100693.14;125837;1099;104204;-78
2022/05/12 06:27:01;;;;;;;10.23;3.90;;;;;;;17.54;50.91;100684.47;125031;1099;104233;-77
2022/05/12 06:33:32;;;;;;;10.07;3.70;;;;;;;18.10;48.49;100684.11;126463;1099;102541;-79
2022/05/12 06:36:36;;;;;;;;;;;;;;;;;;;;;
2022/05/12 06:39:15;;;;;;;9.10;3.23;;;;;;;18.64;47.54;100675.62;126637;1099;102369;-77
2022/05/12 06:42:03;;;;;;;12.57;3.50;;;;;;;18.82;46.27;100681.03;125978;1099;104158;-76
2022/05/12 06:44:47;;;;;;;9.47;3.30;;;;;;;19.09;46.30;100668.77;125750;1099;104204;-77
2022/05/12 06:47:50;;;;;;;9.53;3.20;;;;;;;19.29;45.60;100676.80;125803;1099;103091;-78
2022/05/12 06:50:31;;;;;;;8.40;3.13;;;;;;;19.54;45.41;100675.08;125670;1099;102618;-78
2022/05/12 06:53:17;;;;;;;10.30;3.43;;;;;;;19.72;45.44;100676.86;125706;1099;102314;-77
2022/05/12 06:56:01;;;;;;;10.37;3.57;;;;;;;19.94;44.66;100676.91;125879;1099;102234;-77
2022/05/12 06:58:43;;;;;;;9.27;3.67;;;;;;;20.17;43.96;100679.56;125909;1096;104255;-76
2022/05/12 07:01:26;;;;;;;10.13;3.43;;;;;;;20.41;44.44;100672.42;125865;1096;104156;-76
2022/05/12 07:04:05;;;;;;;9.47;3.17;;;;;;;20.63;43.67;100671.48;125953;1098;102327;-78
2022/05/12 07:06:48;;;;;;;13.00;3.60;;;;;;;20.84;42.21;100677.66;125874;1098;102422;-78
2022/05/12 07:09:25;;;;;;;10.80;3.40;;;;;;;21.03;42.62;100661.59;125839;1099;102315;-77
2022/05/12 07:12:01;;;;;;;9.07;3.70;;;;;;;21.19;42.27;100658.84;126207;1099;102191;-78
2022/05/12 07:14:34;;;;;;;11.70;3.67;;;;;;;21.41;41.22;100669.39;126370;1099;102698;-78
2022/05/12 07:17:17;;;;;;;9.35;3.42;;;;;;;21.60;42.20;100662.17;125869;1097;102531;-78
2022/05/12 07:29:20;;;;;;;11.23;3.63;;;;;;;22.46;39.69;100657.87;125926;1099;103619;-78
2022/05/12 07:32:25;;;;;;;13.73;3.80;;;;;;;22.74;39.27;100647.73;125702;1097;104195;-78
2022/05/12 07:34:57;;;;;;;12.60;3.63;;;;;;;22.92;39.15;100662.69;125664;1099;104246;-76
2022/05/12 07:37:48;;;;;;;9.20;3.40;;;;;;;23.18;38.63;100656.12;125683;1096;104155;-77
2022/05/12 07:40:32;;;;;;;7.83;3.37;;;;;;;23.35;38.30;100653.20;125752;1096;102499;-77
2022/05/12 07:43:17;;;;;;;7.07;3.27;;;;;;;23.46;37.63;100653.92;125674;1098;102988;-78
2022/05/12 07:46:01;;;;;;;8.87;3.30;;;;;;;23.58;38.11;100652.86;125605;1099;104188;-78
2022/05/12 07:48:41;;;;;;;9.07;3.13;;;;;;;23.87;37.36;100659.55;125692;1099;104070;-77
2022/05/12 07:51:17;;;;;;;10.27;4.03;;;;;;;24.05;36.23;100651.20;125661;1099;104217;-77
2022/05/12 07:53:56;;;;;;;9.53;3.60;;;;;;;24.23;36.68;100651.77;125700;1099;104172;-77
2022/05/12 07:56:38;;;;;;;8.17;3.13;;;;;;;24.37;36.81;100652.42;125878;1098;103068;-77
2022/05/12 07:59:19;;;;;;;7.00;3.00;;;;;;;24.64;35.49;100655.52;125837;1099;107316;-77
2022/05/12 08:01:58;;;;;;;8.00;3.60;;;;;;;24.86;34.66;100647.03;125827;1099;104455;-78
2022/05/12 08:04:37;;;;;;;10.00;3.40;;;;;;;25.05;34.52;100643.02;125895;1098;104182;-78
2022/05/12 08:07:35;;;;;;;11.63;3.87;;;;;;;25.19;33.97;100642.70;125771;1099;104227;-78
2022/05/12 08:10:11;;;;;;;7.40;3.20;;;;;;;25.33;33.38;100647.80;125706;1099;104271;-76
2022/05/12 08:12:42;;;;;;;11.05;3.45;;;;;;;25.43;33.15;100637.71;125758;1099;102484;-75
2022/05/12 08:15:21;;;;;;;11.43;3.17;;;;;;;25.48;33.12;100641.20;125798;1099;102743;-74
2022/05/12 08:17:56;;;;;;;6.90;3.30;;;;;;;25.55;32.64;100640.11;125617;1099;104242;-75
2022/05/12 08:20:51;;;;;;;9.37;3.43;;;;;;;25.68;32.83;100638.03;124959;1101;102601;-76
2022/05/12 08:23:30;;;;;;;7.37;3.00;;;;;;;25.80;32.39;100642.20;125033;1102;102794;-77
2022/05/12 08:26:17;;;;;;;7.23;3.10;;;;;;;25.87;31.71;100632.16;125014;1102;104377;-77
2022/05/12 08:29:00;;;;;;;5.30;3.10;;;;;;;26.03;31.21;100638.95;125065;1102;104351;-77
2022/05/12 08:31:40;;;;;;;9.93;3.27;;;;;;;26.09;30.80;100632.55;125207;1102;104344;-77
2022/05/12 08:34:20;;;;;;;7.47;3.10;;;;;;;26.22;30.52;100633.96;124993;1102;102753;-77
2022/05/12 08:37:05;;;;;;;7.77;3.23;;;;;;;26.40;30.84;100627.20;125153;1102;102201;-77
2022/05/12 08:39:52;;;;;;;6.37;2.90;;;;;;;26.51;29.93;100634.98;125039;1102;104338;-76
2022/05/12 08:42:36;;;;;;;10.87;3.30;;;;;;;26.61;29.96;100636.45;125111;1102;103425;-77
2022/05/12 08:45:13;;;;;;;11.33;3.40;;;;;;;26.70;29.33;100632.66;125291;1102;104181;-77
2022/05/12 08:48:14;;;;;;;8.10;3.40;;;;;;;26.82;29.42;100635.00;125171;1099;104310;-77
2022/05/12 08:50:57;;;;;;;6.00;3.73;;;;;;;26.89;28.95;100630.30;125144;1099;102306;-77
2022/05/12 08:53:46;;;;;;;10.60;3.87;;;;;;;26.94;28.68;100632.86;125587;1099;104254;-77
2022/05/12 08:56:22;;;;;;;6.97;3.10;;;;;;;26.98;28.10;100629.16;125647;1099;104256;-78
2022/05/12 08:59:04;;;;;;;9.20;3.50;;;;;;;27.01;28.24;100624.55;125767;1099;102158;-78
2022/05/12 09:01:51;;;;;;;7.50;3.40;;;;;;;27.11;28.28;100624.27;126086;1099;102445;-78
2022/05/12 09:05:04;;;;;;;9.37;3.50;;;;;;;27.20;27.95;100623.98;126083;1099;104172;-79
2022/05/12 09:08:02;;;;;;;6.87;3.40;;;;;;;27.21;27.63;100625.76;126003;1099;104310;-77
2022/05/12 09:10:54;;;;;;;9.37;3.63;;;;;;;27.22;27.86;100620.33;125869;1099;104208;-78
2022/05/12 09:13:50;;;;;;;;;;;;;;;27.29;27.21;100620.13;125742;1099;102259;-79
2022/05/12 09:16:58;;;;;;;8.10;3.50;;;;;;;27.23;27.39;100607.73;125102;1102;104323;-79
2022/05/12 09:19:38;;;;;;;7.80;3.50;;;;;;;27.35;27.15;100622.66;125190;1102;104246;-76
2022/05/12 09:22:29;;;;;;;6.87;3.77;;;;;;;27.43;27.11;100615.20;125057;1102;104521;-76
2022/05/12 09:25:07;;;;;;;;;;;;;;;27.46;26.94;100604.33;125259;1102;104615;-77
2022/05/12 09:27:44;;;;;;;9.47;3.63;;;;;;;27.44;26.69;100606.17;125133;1102;102428;-78
2022/05/12 09:30:34;;;;;;;8.73;3.73;;;;;;;27.39;26.62;100611.70;125219;1102;102190;-79
2022/05/12 09:33:26;;;;;;;4.80;3.33;;;;;;;27.33;27.13;100608.34;124397;1102;104233;-79
2022/05/12 09:36:11;;;;;;;10.57;3.63;;;;;;;27.34;27.27;100604.73;125058;1102;104485;-79
2022/05/12 09:38:54;;;;;;;10.80;4.65;;;;;;;27.50;26.51;100597.02;124589;1102;104450;-78
2022/05/12 09:41:55;;;;;;;8.73;4.00;;;;;;;27.68;26.76;100599.09;125109;1102;111462;-79
2022/05/12 09:44:55;;;;;;;9.45;3.75;;;;;;;27.78;26.45;100595.17;125243;1102;104229;-79
2022/05/12 09:47:41;;;;;;;10.57;4.07;;;;;;;27.75;26.38;100578.19;125120;1102;104214;-78
2022/05/12 09:50:26;;;;;;;8.63;4.07;;;;;;;27.79;26.17;100580.73;125111;1102;104383;-77
2022/05/12 09:53:07;;;;;;;8.83;3.83;;;;;;;27.82;26.70;100590.54;125245;1099;102267;-78
2022/05/12 09:56:01;;;;;;;8.63;3.93;;;;;;;27.84;26.79;100575.18;125848;1099;104192;-78
2022/05/12 09:58:59;;;;;;;14.43;3.93;;;;;;;27.89;26.28;100581.31;125942;1099;104126;-77
2022/05/12 10:01:54;;;;;;;11.47;4.00;;;;;;;27.89;26.58;100581.31;125831;1099;102485;-78
2022/05/12 10:07:55;;;;;;;8.53;4.00;;;;;;;27.86;26.10;100580.52;125136;1099;102268;-78
2022/05/12 10:10:34;;;;;;;10.70;4.15;;;;;;;27.82;26.29;100573.50;124896;1099;102392;-79
2022/05/12 10:13:21;;;;;;;9.67;3.70;;;;;;;27.85;26.38;100573.39;125009;1099;102244;-78
2022/05/12 10:15:57;;;;;;;10.53;4.00;;;;;;;27.82;25.88;100573.50;124991;1098;104230;-78
2022/05/12 10:18:37;;;;;;;5.83;3.17;;;;;;;27.88;26.11;100575.98;125016;1099;102705;-78
2022/05/12 10:21:22;;;;;;;8.43;4.00;;;;;;;27.95;25.94;100567.62;125536;1099;102608;-78
2022/05/12 10:24:09;;;;;;;7.97;4.10;;;;;;;27.91;25.42;100560.56;125214;1099;104169;-79
2022/05/12 10:26:44;;;;;;;7.40;3.83;;;;;;;27.82;25.33;100557.31;125049;1099;102567;-78
2022/05/12 10:29:26;;;;;;;6.53;3.80;;;;;;;27.76;25.82;100553.01;125045;1099;102979;-78
2022/05/12 10:32:06;;;;;;;7.07;3.70;;;;;;;27.67;25.68;100543.41;125208;1099;104159;-79
2022/05/12 10:34:51;;;;;;;8.93;4.07;;;;;;;27.70;25.92;100553.22;125033;1099;102322;-78
2022/05/12 10:37:36;;;;;;;9.60;4.13;;;;;;;27.76;25.41;100547.62;124918;1099;104328;-77
2022/05/12 10:40:22;;;;;;;10.23;3.83;;;;;;;27.82;25.31;100536.62;124933;1099;102400;-78
2022/05/12 10:43:08;;;;;;;8.50;3.83;;;;;;;27.97;25.37;100541.50;124880;1099;118931;-77
2022/05/12 10:45:47;;;;;;;7.83;3.40;;;;;;;28.07;25.16;100535.77;125751;1099;104265;-78
2022/05/12 10:48:44;;;;;;;8.17;3.43;;;;;;;28.14;24.89;100538.20;125730;1098;102539;-79
2022/05/12 10:51:27;;;;;;;5.93;3.60;;;;;;;28.12;24.64;100523.86;125762;1099;102845;-77
2022/05/12 10:54:13;;;;;;;8.93;3.87;;;;;;;28.14;24.86;100531.89;125830;1098;104245;-76
2022/05/12 10:57:12;;;;;;;9.47;3.80;;;;;;;28.25;24.76;100523.41;125697;1099;103996;-77
2022/05/12 11:00:28;;;;;;;6.23;3.67;;;;;;;28.28;24.47;100501.70;125709;1099;102487;-78
2022/05/12 11:03:19;;;;;;;7.23;3.80;;;;;;;28.33;24.77;100506.00;125835;1099;104159;-77
2022/05/12 11:05:59;;;;;;;12.03;4.00;;;;;;;28.33;24.47;100506.00;125868;1099;102212;-78
2022/05/12 11:08:46;;;;;;;9.67;4.10;;;;;;;28.36;24.61;100507.72;125854;1098;102765;-76
2022/05/12 11:11:24;;;;;;;10.97;3.77;;;;;;;28.36;23.99;100507.72;125754;1099;104641;-78
2022/05/12 11:14:33;;;;;;;;;;;;;;;;;;;;;
2022/05/12 11:17:35;;;;;;;;;;;;;;;;;;;;;
2022/05/12 11:20:47;;;;;;;;;;;;;;;;;;;;;
2022/05/12 11:27:15;;;;;;;10.87;3.90;;;;;;;28.40;24.41;100495.84;125750;1099;102435;-78
2022/05/12 11:30:04;;;;;;;10.70;3.87;;;;;;;28.41;24.13;100485.95;124816;1099;104222;-76
2022/05/12 11:33:02;;;;;;;8.77;4.07;;;;;;;28.47;24.30;100485.69;125154;1099;104188;-76
2022/05/12 11:35:43;;;;;;;7.20;3.80;;;;;;;28.50;24.18;100481.06;125682;1099;104175;-77
2022/05/12 11:38:53;;;;;;;7.37;3.77;;;;;;;28.53;24.24;100481.88;125679;1099;104173;-77
2022/05/12 11:41:42;;;;;;;7.57;3.70;;;;;;;28.51;24.01;100480.11;125625;1099;103229;-77
2022/05/12 11:44:45;;;;;;;6.80;3.40;;;;;;;28.54;23.91;100473.72;125620;1099;104214;-77
2022/05/12 11:47:43;;;;;;;10.47;4.00;;;;;;;28.60;24.18;100478.91;124764;1099;104234;-77
2022/05/12 11:50:45;;;;;;;7.33;4.00;;;;;;;28.59;24.03;100466.34;125748;1099;102271;-76
2022/05/12 11:53:21;;;;;;;10.60;4.37;;;;;;;28.60;24.29;100460.02;124898;1099;104245;-76
2022/05/12 11:56:01;;;;;;;6.33;3.73;;;;;;;28.63;24.41;100464.42;124915;1098;104804;-77
2022/05/12 11:58:40;;;;;;;11.17;4.10;;;;;;;28.69;24.07;100454.25;124953;1099;104405;-77
2022/05/12 12:01:40;;;;;;;10.95;3.80;;;;;;;28.68;24.18;100446.21;125037;1098;104249;-78
2022/05/12 12:04:16;;;;;;;6.40;3.80;;;;;;;28.59;23.77;100450.14;124942;1099;104153;-77
2022/05/12 12:10:04;;;;;;;9.20;3.80;;;;;;;28.41;23.80;100438.25;125043;1098;104169;-77
2022/05/12 12:13:06;;;;;;;10.35;3.70;;;;;;;28.46;23.82;100435.38;125009;1099;104243;-76
2022/05/12 12:15:51;;;;;;;6.47;3.70;;;;;;;28.52;24.12;100435.12;124969;1099;104160;-77
2022/05/12 12:18:55;;;;;;;9.53;3.80;;;;;;;28.58;24.02;100437.62;124936;1097;104156;-76
2022/05/12 12:22:07;;;;;;;5.63;3.60;;;;;;;28.58;23.92;100423.19;124963;1099;102323;-76
2022/05/12 12:25:02;;;;;;;7.45;3.67;;;;;;;28.60;23.28;100438.42;124869;1099;104166;-76
2022/05/12 12:28:09;;;;;;;9.17;3.70;;;;;;;28.60;23.46;100432.16;124883;1099;104086;-78
2022/05/12 12:31:03;;;;;;;8.93;4.27;;;;;;;28.63;23.53;100429.33;125061;1099;104243;-77
2022/05/12 12:34:12;;;;;;;4.93;3.60;;;;;;;28.64;23.44;100421.17;125050;1099;102611;-77
2022/05/12 12:37:06;;;;;;;7.73;3.80;;;;;;;28.67;23.62;100414.75;125620;1099;102261;-77
2022/05/12 12:39:55;;;;;;;6.72;3.70;;;;;;;28.69;23.71;100405.66;124821;1098;103058;-78
2022/05/12 12:42:46;;;;;;;5.67;3.77;;;;;;;28.63;23.28;100416.70;125464;1099;104300;-75
2022/05/12 12:45:26;;;;;;;6.20;3.60;;;;;;;28.63;23.52;100408.61;124823;1099;102507;-77